createdAt,value
2019-04-28T00:00:06.641Z,100578.60
2019-04-28T00:02:40.840Z,100577.61
2019-04-28T00:05:12.726Z,100577.85
2019-04-28T00:07:44.656Z,100578.22
2019-04-28T00:10:16.551Z,100580.41
2019-04-28T00:12:48.518Z,100583.85
2019-04-28T00:15:20.936Z,100580.41
2019-04-28T00:17:53.129Z,100587.53
2019-04-28T00:20:36.025Z,100587.39
2019-04-28T00:23:18.297Z,100586.17
2019-04-28T00:26:01.583Z,100588.03
2019-04-28T00:28:34.598Z,100587.41
2019-04-28T00:31:06.773Z,100588.74
2019-04-28T00:33:38.672Z,100583.36
2019-04-28T00:36:11.564Z,100581.66
2019-04-28T00:38:43.489Z,100591.70
2019-04-28T00:41:15.386Z,100588.12
2019-04-28T00:43:47.278Z,100576.50
2019-04-28T00:46:21.203Z,100570.89
2019-04-28T00:48:53.258Z,100570.14
2019-04-28T00:51:25.155Z,100574.17
2019-04-28T00:53:57.042Z,100579.95
2019-04-28T00:56:28.929Z,100580.07
2019-04-28T00:59:01.661Z,100584.71
2019-04-28T01:01:48.568Z,100579.94
2019-04-28T01:04:21.947Z,100576.88
2019-04-28T01:06:54.296Z,100575.41
2019-04-28T01:09:26.373Z,100577.13
2019-04-28T01:11:58.246Z,100576.88
2019-04-28T01:14:30.972Z,100576.52
2019-04-28T01:17:09.859Z,100577.75
2019-04-28T01:19:43.994Z,100571.50
2019-04-28T01:22:20.136Z,100577.38
2019-04-28T01:24:52.177Z,100574.67
2019-04-28T01:27:50.581Z,100578.71
2019-04-28T01:30:50.572Z,100580.90
2019-04-28T01:33:56.543Z,100579.45
2019-04-28T01:36:30.121Z,100572.10
2019-04-28T01:39:02.097Z,100569.66
2019-04-28T01:41:36.850Z,100575.78
2019-04-28T01:44:10.210Z,100577.11
2019-04-28T01:46:42.932Z,100579.33
2019-04-28T01:49:14.921Z,100575.28
2019-04-28T01:52:00.550Z,100575.89
2019-04-28T01:54:32.221Z,100581.65
2019-04-28T01:57:04.114Z,100586.17
2019-04-28T01:59:35.939Z,100567.70
2019-04-28T02:02:09.959Z,100568.80
2019-04-28T02:04:41.625Z,100573.45
2019-04-28T02:07:13.516Z,100576.52
2019-04-28T02:09:45.429Z,100580.20
2019-04-28T02:12:17.316Z,100579.70
2019-04-28T02:14:52.156Z,100580.67
2019-04-28T02:17:24.368Z,100585.59
2019-04-28T02:19:56.365Z,100578.95
2019-04-28T02:22:47.114Z,100582.16
2019-04-28T02:25:19.576Z,100577.98
2019-04-28T02:27:52.694Z,100582.52
2019-04-28T02:30:40.971Z,100584.47
2019-04-28T02:32:58.085Z,100577.75
2019-04-28T02:35:31.490Z,100585.56
2019-04-28T02:38:03.683Z,100588.02
2019-04-28T02:40:35.561Z,100591.70
2019-04-28T02:43:07.375Z,100587.41
2019-04-28T02:45:41.281Z,100584.48
2019-04-28T02:48:21.104Z,100588.76
2019-04-28T02:51:01.048Z,100589.61
2019-04-28T02:53:35.974Z,100586.78
2019-04-28T02:56:07.798Z,100596.20
2019-04-28T02:58:41.518Z,100596.70
2019-04-28T03:01:22.793Z,100595.36
2019-04-28T03:03:46.782Z,100592.06
2019-04-28T03:06:20.726Z,100594.38
2019-04-28T03:08:52.159Z,100599.78
2019-04-28T03:11:24.373Z,100599.77
2019-04-28T03:13:56.451Z,100593.27
2019-04-28T03:16:30.026Z,100603.92
2019-04-28T03:19:02.915Z,100604.41
2019-04-28T03:21:34.937Z,100607.10
2019-04-28T03:24:06.811Z,100604.78
2019-04-28T03:26:52.401Z,100609.33
2019-04-28T03:29:36.658Z,100610.41
2019-04-28T03:32:32.334Z,100605.89
2019-04-28T03:34:53.896Z,100614.95
2019-04-28T03:37:24.589Z,100621.78
2019-04-28T03:39:56.547Z,100621.78
2019-04-28T03:42:31.153Z,100621.78
2019-04-28T03:45:03.632Z,100620.17
2019-04-28T03:47:35.519Z,100627.41
2019-04-28T03:50:10.235Z,100628.85
2019-04-28T03:52:41.636Z,100632.15
2019-04-28T03:55:13.607Z,100631.30
2019-04-28T03:57:45.477Z,100633.63
2019-04-28T04:00:17.285Z,100646.58
2019-04-28T04:02:50.770Z,100646.07
2019-04-28T04:05:23.122Z,100652.55
2019-04-28T04:07:55.012Z,100653.77
2019-04-28T04:10:40.297Z,100654.13
2019-04-28T04:13:16.278Z,100656.69
2019-04-28T04:16:24.850Z,100657.05
2019-04-28T04:19:00.522Z,100659.73
2019-04-28T04:21:31.604Z,100655.25
2019-04-28T04:24:03.620Z,100660.48
2019-04-28T04:26:35.506Z,100659.93
2019-04-28T04:29:07.377Z,100669.44
2019-04-28T04:31:41.344Z,100667.20
2019-04-28T04:34:12.771Z,100666.84
2019-04-28T04:36:44.670Z,100671.51
2019-04-28T04:39:16.455Z,100671.59
2019-04-28T04:41:50.394Z,100678.18
2019-04-28T04:44:21.900Z,100676.09
2019-04-28T04:46:53.772Z,100684.91
2019-04-28T04:49:25.646Z,100688.42
2019-04-28T04:51:59.924Z,100688.42
2019-04-28T04:54:36.577Z,100695.52
2019-04-28T04:57:06.683Z,100697.01
2019-04-28T04:59:40.112Z,100698.86
2019-04-28T05:02:37.230Z,100704.11
2019-04-28T05:05:22.219Z,100709.61
2019-04-28T05:07:54.373Z,100712.45
2019-04-28T05:10:26.403Z,100721.59
2019-04-28T05:12:59.904Z,100721.73
2019-04-28T05:15:31.795Z,100720.39
2019-04-28T05:18:03.796Z,100727.62
2019-04-28T05:20:35.607Z,100733.38
2019-04-28T05:23:16.791Z,100736.18
2019-04-28T05:25:49.723Z,100725.84
2019-04-28T05:28:21.706Z,100728.94
2019-04-28T05:30:53.645Z,100733.04
2019-04-28T05:33:32.024Z,100741.05
2019-04-28T05:36:03.155Z,100741.05
2019-04-28T05:38:35.083Z,100741.28
2019-04-28T05:41:06.975Z,100743.91
2019-04-28T05:43:40.410Z,100736.73
2019-04-28T05:46:12.480Z,100737.63
2019-04-28T05:48:51.279Z,100744.49
2019-04-28T05:51:24.602Z,100741.30
2019-04-28T05:54:03.885Z,100743.30
2019-04-28T05:56:43.199Z,100749.76
2019-04-28T05:59:19.328Z,100761.17
2019-04-28T06:02:02.353Z,100752.88
2019-04-28T06:04:34.229Z,100757.79
2019-04-28T06:07:13.653Z,100758.30
2019-04-28T06:09:50.097Z,100763.19
2019-04-28T06:12:22.246Z,100768.48
2019-04-28T06:14:54.334Z,100773.54
2019-04-28T06:17:26.363Z,100765.83
2019-04-28T06:20:00.068Z,100767.81
2019-04-28T06:22:31.775Z,100771.95
2019-04-28T06:25:03.676Z,100778.72
2019-04-28T06:27:35.604Z,100777.39
2019-04-28T06:30:08.055Z,100772.86
2019-04-28T06:32:39.945Z,100776.28
2019-04-28T06:35:11.799Z,100773.59
2019-04-28T06:37:43.674Z,100772.14
2019-04-28T06:40:15.508Z,100778.64
2019-04-28T06:42:47.412Z,100780.34
2019-04-28T06:45:19.259Z,100784.25
2019-04-28T06:47:51.816Z,100786.22
2019-04-28T06:50:23.664Z,100788.67
2019-04-28T06:52:55.474Z,100790.02
2019-04-28T06:55:27.829Z,100789.27
2019-04-28T06:57:59.732Z,100791.20
2019-04-28T07:00:31.950Z,100793.30
2019-04-28T07:03:04.154Z,100796.11
2019-04-28T07:05:36.063Z,100793.28
2019-04-28T07:08:07.951Z,100789.34
2019-04-28T07:10:39.828Z,100791.91
2019-04-28T07:13:11.757Z,100790.33
2019-04-28T07:15:44.641Z,100794.76
2019-04-28T07:18:16.539Z,100793.45
2019-04-28T07:20:57.292Z,100792.31
2019-04-28T07:23:29.312Z,100798.65
2019-04-28T07:26:01.134Z,100794.35
2019-04-28T07:28:32.997Z,100808.47
2019-04-28T07:31:04.956Z,100807.94
2019-04-28T07:33:36.853Z,100817.39
2019-04-28T07:36:08.770Z,100827.33
2019-04-28T07:38:40.657Z,100823.47
2019-04-28T07:41:12.519Z,100828.14
2019-04-28T07:43:44.399Z,100839.00
2019-04-28T07:46:16.204Z,100838.94
2019-04-28T07:48:48.090Z,100843.27
2019-04-28T07:51:22.181Z,100842.41
2019-04-28T07:53:57.880Z,100844.26
2019-04-28T07:56:29.701Z,100852.38
2019-04-28T07:59:01.722Z,100851.05
2019-04-28T08:01:33.660Z,100850.14
2019-04-28T08:04:05.961Z,100851.34
2019-04-28T08:06:37.835Z,100861.42
2019-04-28T08:09:13.096Z,100858.97
2019-04-28T08:11:47.226Z,100863.31
2019-04-28T08:14:19.833Z,100868.23
2019-04-28T08:16:53.210Z,100866.74
2019-04-28T08:19:25.605Z,100864.05
2019-04-28T08:21:57.410Z,100871.41
2019-04-28T08:24:29.361Z,100862.67
2019-04-28T08:27:01.241Z,100869.55
2019-04-28T08:29:33.229Z,100876.14
2019-04-28T08:32:24.623Z,100876.14
2019-04-28T08:34:56.551Z,100889.14
2019-04-28T08:37:28.337Z,100888.20
2019-04-28T08:40:00.167Z,100894.79
2019-04-28T08:42:32.010Z,100888.41
2019-04-28T08:45:04.044Z,100900.67
2019-04-28T08:47:36.101Z,100892.58
2019-04-28T08:50:08.034Z,100899.35
2019-04-28T08:52:39.981Z,100898.63
2019-04-28T08:55:11.941Z,100905.98
2019-04-28T08:57:45.631Z,100908.07
2019-04-28T09:00:18.210Z,100907.20
2019-04-28T09:02:50.102Z,100899.78
2019-04-28T09:05:22.051Z,100911.34
2019-04-28T09:07:53.972Z,100912.67
2019-04-28T09:10:25.813Z,100925.59
2019-04-28T09:12:57.700Z,100914.16
2019-04-28T09:15:29.561Z,100912.56
2019-04-28T09:18:02.708Z,100915.58
2019-04-28T09:20:34.836Z,100912.98
2019-04-28T09:23:06.712Z,100911.59
2019-04-28T09:25:40.818Z,100905.97
2019-04-28T09:28:14.507Z,100909.99
2019-04-28T09:30:46.659Z,100909.25
2019-04-28T09:33:19.159Z,100913.68
2019-04-28T09:35:52.056Z,100912.91
2019-04-28T09:38:24.715Z,100916.41
2019-04-28T09:40:56.841Z,100909.02
2019-04-28T09:43:46.581Z,100909.91
2019-04-28T09:46:27.937Z,100909.91
2019-04-28T09:49:00.048Z,100908.94
2019-04-28T09:51:33.600Z,100913.41
2019-04-28T09:54:05.747Z,100879.52
2019-04-28T09:56:37.610Z,100907.81
2019-04-28T09:59:09.481Z,100908.67
2019-04-28T10:01:41.357Z,100908.12
2019-04-28T10:04:13.226Z,100908.36
2019-04-28T10:06:45.086Z,100908.04
2019-04-28T10:09:16.890Z,100911.37
2019-04-28T10:11:48.763Z,100909.20
2019-04-28T10:14:20.727Z,100915.50
2019-04-28T10:16:52.581Z,100909.79
2019-04-28T10:19:24.426Z,100913.60
2019-04-28T10:21:56.285Z,100923.73
2019-04-28T10:24:28.255Z,100923.73
2019-04-28T10:27:00.370Z,100912.88
2019-04-28T10:29:33.286Z,100931.39
2019-04-28T10:32:05.148Z,100920.56
2019-04-28T10:34:37.022Z,100919.78
2019-04-28T10:37:08.895Z,100921.86
2019-04-28T10:39:55.574Z,100925.62
2019-04-28T10:42:27.433Z,100928.61
2019-04-28T10:45:00.213Z,100919.51
2019-04-28T10:47:32.575Z,100919.51
2019-04-28T10:50:04.825Z,100920.47
2019-04-28T10:52:36.840Z,100925.41
2019-04-28T10:55:08.709Z,100924.80
2019-04-28T10:57:40.589Z,100923.80
2019-04-28T11:00:13.386Z,100931.30
2019-04-28T11:02:45.316Z,100926.75
2019-04-28T11:05:31.750Z,100927.31
2019-04-28T11:08:05.852Z,100933.22
2019-04-28T11:10:37.745Z,100927.45
2019-04-28T11:13:11.125Z,100926.94
2019-04-28T11:15:43.193Z,100936.11
2019-04-28T11:18:15.916Z,100931.33
2019-04-28T11:20:47.759Z,100934.09
2019-04-28T11:23:19.763Z,100934.03
2019-04-28T11:25:52.450Z,100934.88
2019-04-28T11:28:24.389Z,100936.44
2019-04-28T11:30:56.423Z,100936.14
2019-04-28T11:33:52.686Z,100939.30
2019-04-28T11:36:24.532Z,100951.31
2019-04-28T11:38:56.399Z,100946.25
2019-04-28T11:41:28.388Z,100941.83
2019-04-28T11:44:00.196Z,100952.78
2019-04-28T11:46:31.979Z,100946.05
2019-04-28T11:49:03.776Z,100936.88
2019-04-28T11:51:35.545Z,100942.30
2019-04-28T11:54:07.420Z,100941.58
2019-04-28T11:56:41.523Z,100940.47
2019-04-28T11:59:12.875Z,100943.02
2019-04-28T12:01:44.659Z,100947.85
2019-04-28T12:04:17.907Z,100951.34
2019-04-28T12:06:49.783Z,100946.65
2019-04-28T12:09:43.910Z,100953.54
2019-04-28T12:12:41.436Z,100953.84
2019-04-28T12:15:32.148Z,100959.55
2019-04-28T12:18:37.836Z,100957.80
2019-04-28T12:21:10.677Z,100962.30
2019-04-28T12:23:42.530Z,100955.47
2019-04-28T12:26:14.336Z,100960.82
2019-04-28T12:28:46.184Z,100959.95
2019-04-28T12:31:18.141Z,100963.14
2019-04-28T12:33:50.251Z,100961.18
2019-04-28T12:36:22.201Z,100956.33
2019-04-28T12:38:54.313Z,100955.41
2019-04-28T12:41:26.175Z,100951.77
2019-04-28T12:43:58.093Z,100953.51
2019-04-28T12:46:29.953Z,100963.44
2019-04-28T12:49:06.074Z,100958.70
2019-04-28T12:51:37.894Z,100965.66
2019-04-28T12:54:11.447Z,100960.80
2019-04-28T12:56:43.313Z,100958.02
2019-04-28T12:59:21.951Z,100951.22
2019-04-28T13:02:05.025Z,100961.79
2019-04-28T13:04:43.195Z,100952.03
2019-04-28T13:07:15.468Z,100944.72
2019-04-28T13:09:48.611Z,100951.55
2019-04-28T13:12:21.778Z,100948.97
2019-04-28T13:14:54.555Z,100961.03
2019-04-28T13:17:27.092Z,100956.77
2019-04-28T13:20:00.722Z,100960.43
2019-04-28T13:22:34.028Z,100948.81
2019-04-28T13:25:07.347Z,100953.48
2019-04-28T13:27:40.910Z,100948.14
2019-04-28T13:30:13.762Z,100956.84
2019-04-28T13:32:46.426Z,100956.61
2019-04-28T13:35:21.598Z,100950.56
2019-04-28T13:37:54.124Z,100946.86
2019-04-28T13:40:30.933Z,100949.78
2019-04-28T13:43:03.430Z,100952.99
2019-04-28T13:45:36.125Z,100945.22
2019-04-28T13:48:08.168Z,100948.69
2019-04-28T13:50:43.123Z,100939.39
2019-04-28T13:53:16.187Z,100946.53
2019-04-28T13:56:07.055Z,100946.97
2019-04-28T13:59:02.932Z,100949.80
2019-04-28T14:01:46.607Z,100946.06
2019-04-28T14:04:31.096Z,100954.98
2019-04-28T14:07:07.450Z,100952.11
2019-04-28T14:09:39.397Z,100951.53
2019-04-28T14:12:11.605Z,100952.52
2019-04-28T14:14:43.803Z,100946.43
2019-04-28T14:17:16.089Z,100946.43
2019-04-28T14:19:48.093Z,100953.19
2019-04-28T14:22:19.999Z,100948.05
2019-04-28T14:24:52.142Z,100942.95
2019-04-28T14:27:24.205Z,100943.52
2019-04-28T14:29:56.088Z,100943.52
2019-04-28T14:32:28.041Z,100938.02
2019-04-28T14:35:00.083Z,100952.11
2019-04-28T14:37:33.285Z,100946.43
2019-04-28T14:40:05.998Z,100960.29
2019-04-28T14:42:37.849Z,100952.99
2019-04-28T14:45:10.021Z,100957.88
2019-04-28T14:47:42.035Z,100955.53
2019-04-28T14:50:14.195Z,100953.97
2019-04-28T14:52:46.101Z,100955.14
2019-04-28T14:55:19.321Z,100958.69
2019-04-28T14:57:52.535Z,100959.97
2019-04-28T15:00:30.666Z,100959.97
2019-04-28T15:03:06.779Z,100961.58
2019-04-28T15:05:57.021Z,100961.58
2019-04-28T15:08:46.342Z,100963.32
2019-04-28T15:11:43.258Z,100960.50
2019-04-28T15:14:15.126Z,100969.88
2019-04-28T15:16:46.977Z,100965.23
2019-04-28T15:19:18.976Z,100964.14
2019-04-28T15:21:51.065Z,100971.26
2019-04-28T15:24:23.271Z,100971.89
2019-04-28T15:26:56.284Z,100968.09
2019-04-28T15:29:28.262Z,100970.55
2019-04-28T15:32:00.206Z,100979.89
2019-04-28T15:34:32.196Z,100982.22
2019-04-28T15:37:10.176Z,100984.44
2019-04-28T15:39:37.691Z,100985.03
2019-04-28T15:42:09.610Z,100989.82
2019-04-28T15:44:41.569Z,100992.53
2019-04-28T15:47:13.732Z,100990.69
2019-04-28T15:49:45.912Z,100994.48
2019-04-28T15:52:17.840Z,100995.97
2019-04-28T15:54:49.725Z,100990.45
2019-04-28T15:57:21.949Z,100989.97
2019-04-28T15:59:54.198Z,100998.80
2019-04-28T16:02:27.926Z,101002.72
2019-04-28T16:05:00.164Z,101001.73
2019-04-28T16:07:32.031Z,101002.98
2019-04-28T16:10:03.952Z,100998.31
2019-04-28T16:12:35.842Z,101000.77
2019-04-28T16:15:07.841Z,101000.98
2019-04-28T16:17:39.716Z,100992.29
2019-04-28T16:20:11.715Z,100994.72
2019-04-28T16:22:43.832Z,101000.87
2019-04-28T16:25:15.648Z,101002.69
2019-04-28T16:27:47.541Z,100997.53
2019-04-28T16:30:19.428Z,101000.83
2019-04-28T16:32:51.318Z,101002.52
2019-04-28T16:35:23.202Z,101000.94
2019-04-28T16:37:55.288Z,101000.19
2019-04-28T16:40:33.399Z,100995.63
2019-04-28T16:43:14.808Z,101003.82
2019-04-28T16:45:46.684Z,100999.36
2019-04-28T16:48:18.573Z,100995.22
2019-04-28T16:50:50.365Z,100999.97
2019-04-28T16:53:22.560Z,100997.72
2019-04-28T16:56:16.452Z,101000.17
2019-04-28T16:59:06.030Z,101001.53
2019-04-28T17:02:09.262Z,100998.33
2019-04-28T17:04:41.328Z,101005.41
2019-04-28T17:07:13.228Z,101008.92
2019-04-28T17:09:45.328Z,100998.89
2019-04-28T17:12:17.243Z,101004.13
2019-04-28T17:14:49.257Z,101004.58
2019-04-28T17:17:21.150Z,101002.95
2019-04-28T17:19:53.077Z,101009.38
2019-04-28T17:22:24.989Z,101009.24
2019-04-28T17:24:56.861Z,101010.05
2019-04-28T17:27:28.740Z,101011.75
2019-04-28T17:30:00.625Z,101013.04
2019-04-28T17:32:32.827Z,101013.31
2019-04-28T17:35:04.995Z,101013.41
2019-04-28T17:37:36.906Z,101018.33
2019-04-28T17:40:08.921Z,101013.54
2019-04-28T17:42:40.852Z,101014.91
2019-04-28T17:45:12.876Z,101017.98
2019-04-28T17:47:45.508Z,101016.98
2019-04-28T17:50:19.038Z,101023.94
2019-04-28T17:52:50.905Z,101024.16
2019-04-28T17:55:23.103Z,101027.48
2019-04-28T17:57:55.025Z,101029.18
2019-04-28T18:00:39.444Z,101037.48
2019-04-28T18:03:36.042Z,101036.89
2019-04-28T18:06:17.871Z,101038.52
2019-04-28T18:08:47.928Z,101038.20
2019-04-28T18:11:19.851Z,101039.95
2019-04-28T18:13:51.972Z,101044.59
2019-04-28T18:16:44.231Z,101042.77
2019-04-28T18:19:16.339Z,101047.72
2019-04-28T18:21:48.282Z,101048.38
2019-04-28T18:24:20.179Z,101055.05
2019-04-28T18:26:52.508Z,101050.26
2019-04-28T18:29:24.423Z,101057.69
2019-04-28T18:32:13.828Z,101061.34
2019-04-28T18:34:53.982Z,101054.37
2019-04-28T18:37:45.031Z,101067.08
2019-04-28T18:40:39.273Z,101063.13
2019-04-28T18:43:21.734Z,101064.04
2019-04-28T18:45:53.898Z,101063.72
2019-04-28T18:48:26.678Z,101075.24
2019-04-28T18:50:58.607Z,101074.23
2019-04-28T18:53:30.497Z,101070.83
2019-04-28T18:56:02.324Z,101071.58
2019-04-28T18:58:34.300Z,101077.94
2019-04-28T19:01:19.133Z,101075.78
2019-04-28T19:03:51.017Z,101077.77
2019-04-28T19:06:23.286Z,101072.13
2019-04-28T19:09:00.239Z,101079.49
2019-04-28T19:11:41.317Z,101079.49
2019-04-28T19:14:18.433Z,101085.09
2019-04-28T19:17:04.829Z,101086.87
2019-04-28T19:19:38.928Z,101079.45
2019-04-28T19:22:11.185Z,101081.82
2019-04-28T19:24:43.164Z,101079.08
2019-04-28T19:27:15.160Z,101078.50
2019-04-28T19:29:47.057Z,101078.70
2019-04-28T19:32:19.126Z,101081.40
2019-04-28T19:34:51.182Z,101079.51
2019-04-28T19:37:23.277Z,101079.67
2019-04-28T19:39:55.351Z,101074.83
2019-04-28T19:42:27.676Z,101068.63
2019-04-28T19:44:59.679Z,101080.52
2019-04-28T19:47:31.602Z,101075.05
2019-04-28T19:50:03.626Z,101078.00
2019-04-28T19:52:39.871Z,101075.68
2019-04-28T19:55:18.228Z,101075.52
2019-04-28T19:58:11.781Z,101068.53
2019-04-28T20:00:56.316Z,101068.78
2019-04-28T20:03:28.332Z,101069.59
2019-04-28T20:06:00.239Z,101071.81
2019-04-28T20:08:32.179Z,101072.28
2019-04-28T20:11:04.080Z,101063.83
2019-04-28T20:13:36.005Z,101065.67
2019-04-28T20:16:08.015Z,101058.73
2019-04-28T20:18:40.425Z,101059.28
2019-04-28T20:21:12.361Z,101049.37
2019-04-28T20:23:44.500Z,101053.69
2019-04-28T20:26:16.509Z,101053.31
2019-04-28T20:28:48.463Z,101052.94
2019-04-28T20:31:20.413Z,101053.69
2019-04-28T20:33:52.568Z,101056.09
2019-04-28T20:36:46.403Z,101055.62
2019-04-28T20:39:26.552Z,101058.31
2019-04-28T20:42:17.635Z,101057.94
2019-04-28T20:44:49.913Z,101059.00
2019-04-28T20:47:22.119Z,101056.39
2019-04-28T20:49:55.142Z,101056.89
2019-04-28T20:52:27.095Z,101056.97
2019-04-28T20:54:59.121Z,101063.16
2019-04-28T20:57:31.115Z,101058.56
2019-04-28T21:00:05.165Z,101063.56
2019-04-28T21:02:38.672Z,101056.63
2019-04-28T21:05:10.550Z,101053.94
2019-04-28T21:07:42.541Z,101056.63
2019-04-28T21:10:14.678Z,101050.78
2019-04-28T21:12:46.868Z,101045.33
2019-04-28T21:15:19.782Z,101039.65
2019-04-28T21:17:51.689Z,101045.99
2019-04-28T21:20:23.724Z,101039.31
2019-04-28T21:22:56.062Z,101045.28
2019-04-28T21:25:27.911Z,101045.03
2019-04-28T21:28:00.015Z,101043.52
2019-04-28T21:30:31.957Z,101049.58
2019-04-28T21:33:03.938Z,101041.79
2019-04-28T21:35:35.808Z,101033.39
2019-04-28T21:38:07.683Z,101029.77
2019-04-28T21:40:40.813Z,101026.83
2019-04-28T21:43:31.581Z,101036.50
2019-04-28T21:46:24.331Z,101033.64
2019-04-28T21:49:05.272Z,101034.13
2019-04-28T21:51:37.135Z,101026.77
2019-04-28T21:54:09.021Z,101029.84
2019-04-28T21:56:40.899Z,101027.46
2019-04-28T21:59:12.794Z,101024.19
2019-04-28T22:01:44.779Z,101023.88
2019-04-28T22:04:16.636Z,101019.56
2019-04-28T22:06:48.520Z,101019.56
2019-04-28T22:09:21.430Z,101014.22
2019-04-28T22:11:53.302Z,101007.58
2019-04-28T22:14:25.169Z,100998.46
2019-04-28T22:16:57.051Z,101000.14
2019-04-28T22:19:28.935Z,100992.91
2019-04-28T22:22:00.807Z,100990.47
2019-04-28T22:24:51.794Z,100988.41
2019-04-28T22:27:28.668Z,100993.88
2019-04-28T22:30:00.530Z,100989.84
2019-04-28T22:32:33.492Z,100994.38
2019-04-28T22:35:05.582Z,100994.00
2019-04-28T22:37:37.451Z,100989.50
2019-04-28T22:40:13.439Z,100995.14
2019-04-28T22:42:45.315Z,100989.17
2019-04-28T22:45:17.375Z,100986.64
2019-04-28T22:47:49.349Z,100992.87
2019-04-28T22:50:40.245Z,100982.33
2019-04-28T22:53:12.711Z,100995.47
2019-04-28T22:55:52.685Z,100996.98
2019-04-28T22:58:42.630Z,100990.69
2019-04-28T23:01:21.606Z,100995.02
2019-04-28T23:03:58.447Z,100984.47
2019-04-28T23:06:30.321Z,100983.88
2019-04-28T23:09:02.318Z,100980.13
2019-04-28T23:11:35.713Z,100975.02
2019-04-28T23:14:07.583Z,100971.05
2019-04-28T23:16:39.393Z,100964.70
2019-04-28T23:19:13.499Z,100959.75
2019-04-28T23:22:10.289Z,100966.73
2019-04-28T23:24:42.176Z,100952.69
2019-04-28T23:27:14.042Z,100952.89
2019-04-28T23:29:45.924Z,100946.08
2019-04-28T23:32:17.795Z,100946.76
2019-04-28T23:34:49.600Z,100937.84
2019-04-28T23:37:21.424Z,100929.56
2019-04-28T23:39:53.279Z,100921.48
2019-04-28T23:42:48.833Z,100910.44
2019-04-28T23:45:20.712Z,100906.53
2019-04-28T23:47:53.494Z,100908.25
2019-04-28T23:50:34.694Z,100900.61
2019-04-28T23:53:09.914Z,100901.52
2019-04-28T23:55:41.771Z,100892.58
2019-04-28T23:58:14.659Z,100889.13
